Time;durP1;ratioP1;P1;durP2;ratioP2;P2;SDS_P1;SDS_P2;PMS_P1;PMS_P2;Temp;Humidity;BMP_temperature;BMP_pressure;BME280_temperature;BME280_humidity;BME280_pressure;Samples;Min_cycle;Max_cycle;Signal;HPM_P1;HPM_P2
2023/05/01 00:00:49;;;;;;;13.80;8.40;;;8.50;99.90;;;;;;5046851;28;20399;-67
2023/05/01 00:03:16;;;;;;;14.90;8.38;;;8.50;99.90;;;;;;5048090;28;20033;-67
2023/05/01 00:05:43;;;;;;;14.60;8.70;;;8.40;99.90;;;;;;5042773;28;20402;-67
2023/05/01 00:08:09;;;;;;;18.55;9.27;;;8.40;99.90;;;;;;5042365;28;20053;-67
2023/05/01 00:10:35;;;;;;;13.07;9.43;;;8.40;99.90;;;;;;5043829;28;20040;-67
2023/05/01 00:13:01;;;;;;;16.75;9.30;;;8.40;99.90;;;;;;5042825;28;20044;-67
2023/05/01 00:15:27;;;;;;;14.93;9.45;;;8.40;99.90;;;;;;5050007;28;20513;-67
2023/05/01 00:17:53;;;;;;;17.40;9.82;;;8.40;99.90;;;;;;5049831;28;20051;-67
2023/05/01 00:20:18;;;;;;;16.85;9.73;;;8.30;99.90;;;;;;5052031;28;20037;-67
2023/05/01 00:22:44;;;;;;;16.25;9.27;;;8.30;99.90;;;;;;5046226;28;20041;-67
2023/05/01 00:25:10;;;;;;;17.25;9.07;;;8.30;99.90;;;;;;5051621;28;20102;-67
2023/05/01 00:27:35;;;;;;;15.95;9.07;;;8.30;99.90;;;;;;5055818;28;20056;-67
2023/05/01 00:30:02;;;;;;;15.13;9.60;;;8.20;99.90;;;;;;5043675;28;20055;-67
2023/05/01 00:32:28;;;;;;;13.38;8.90;;;8.20;99.90;;;;;;5047594;28;20046;-67
2023/05/01 00:34:55;;;;;;;14.10;9.57;;;8.20;99.90;;;;;;5048550;28;20044;-67
2023/05/01 00:37:21;;;;;;;16.50;9.43;;;8.20;99.90;;;;;;5058808;28;20074;-67
2023/05/01 00:39:46;;;;;;;18.30;9.48;;;8.10;99.90;;;;;;5040098;28;20033;-67
2023/05/01 00:42:12;;;;;;;13.70;9.13;;;8.10;99.90;;;;;;5065488;28;20044;-67
2023/05/01 00:44:38;;;;;;;15.65;8.75;;;8.10;99.90;;;;;;5048499;28;20565;-67
2023/05/01 00:47:03;;;;;;;19.33;9.32;;;8.00;99.90;;;;;;5050844;28;20033;-67
2023/05/01 00:49:29;;;;;;;15.38;8.70;;;8.00;99.90;;;;;;5047498;28;20051;-67
2023/05/01 00:51:55;;;;;;;17.58;8.65;;;8.00;99.90;;;;;;5054041;28;20459;-67
2023/05/01 00:54:22;;;;;;;13.75;8.85;;;8.00;99.90;;;;;;5042590;28;20437;-67
2023/05/01 00:56:48;;;;;;;19.27;9.25;;;8.00;99.90;;;;;;5042842;28;20041;-67
2023/05/01 00:59:14;;;;;;;15.05;9.80;;;7.90;99.90;;;;;;5043867;28;20045;-67
2023/05/01 01:01:43;;;;;;;18.48;10.10;;;7.90;99.90;;;;;;5041155;28;20572;-67
2023/05/01 01:04:08;;;;;;;18.05;8.93;;;7.90;99.90;;;;;;5043766;28;20044;-67
2023/05/01 01:06:46;;;;;;;16.55;8.52;;;7.90;99.90;;;;;;5045066;28;20044;-67
2023/05/01 01:09:35;;;;;;;15.57;8.85;;;7.90;99.90;;;;;;5057067;28;20045;-67
2023/05/01 01:12:08;;;;;;;12.93;8.63;;;7.80;99.90;;;;;;5045143;28;20601;-67
2023/05/01 01:15:11;;;;;;;14.90;8.70;;;7.80;99.90;;;;;;5042320;28;20053;-67
2023/05/01 01:17:56;;;;;;;15.02;8.57;;;7.80;99.90;;;;;;5043878;28;20191;-67
2023/05/01 01:20:45;;;;;;;14.80;8.68;;;7.70;99.90;;;;;;5045113;28;20468;-67
2023/05/01 01:23:20;;;;;;;15.73;8.57;;;7.70;99.90;;;;;;5045567;28;20491;-67
2023/05/01 01:25:54;;;;;;;15.68;8.60;;;7.70;99.90;;;;;;5044480;28;20049;-67
2023/05/01 01:28:50;;;;;;;15.73;8.18;;;7.70;99.90;;;;;;5043724;28;20076;-67
2023/05/01 01:31:37;;;;;;;17.23;8.75;;;7.60;99.90;;;;;;5043879;28;20037;-67
2023/05/01 01:34:08;;;;;;;15.73;9.55;;;7.60;99.90;;;;;;5040940;28;20037;-67
2023/05/01 01:36:46;;;;;;;19.75;10.68;;;7.60;99.90;;;;;;5048481;28;20096;-67
2023/05/01 01:39:34;;;;;;;16.75;8.90;;;7.60;99.90;;;;;;5037141;28;20044;-67
2023/05/01 01:42:06;;;;;;;13.65;8.88;;;7.50;99.90;;;;;;5042823;28;20040;-67
2023/05/01 01:44:48;;;;;;;15.65;8.95;;;7.50;99.90;;;;;;5041748;28;20041;-67
2023/05/01 01:47:15;;;;;;;17.13;9.25;;;7.50;99.90;;;;;;5046868;28;20094;-67
2023/05/01 01:49:45;;;;;;;13.70;8.30;;;7.50;99.90;;;;;;5055384;28;20048;-67
2023/05/01 01:52:14;;;;;;;15.32;8.30;;;7.50;99.90;;;;;;5040979;28;20485;-67
2023/05/01 01:54:50;;;;;;;13.23;8.30;;;7.50;99.90;;;;;;5045912;28;20040;-67
2023/05/01 01:57:19;;;;;;;15.13;8.57;;;7.50;99.90;;;;;;5046323;28;20041;-67
2023/05/01 01:59:47;;;;;;;17.50;8.60;;;7.50;99.90;;;;;;5039786;28;20037;-67
2023/05/01 02:02:15;;;;;;;17.65;8.73;;;7.40;99.90;;;;;;5039644;28;20404;-67
2023/05/01 02:04:42;;;;;;;13.05;8.35;;;7.40;99.90;;;;;;5039116;28;20276;-67
2023/05/01 02:07:11;;;;;;;15.10;8.10;;;7.40;99.90;;;;;;5039127;28;21806;-67
2023/05/01 02:09:37;;;;;;;14.50;7.78;;;7.40;99.90;;;;;;5040283;28;20064;-67
2023/05/01 02:12:06;;;;;;;13.25;7.90;;;7.40;99.90;;;;;;5041319;28;20049;-67
2023/05/01 02:14:32;;;;;;;13.70;7.70;;;7.40;99.90;;;;;;5040040;28;20063;-67
2023/05/01 02:16:58;;;;;;;14.13;7.35;;;7.30;99.90;;;;;;5044346;28;20079;-67
2023/05/01 02:19:25;;;;;;;14.32;7.80;;;7.30;99.90;;;;;;5037971;28;20131;-67
2023/05/01 02:21:54;;;;;;;12.48;7.75;;;7.30;99.90;;;;;;5037431;28;20137;-67
2023/05/01 02:24:23;;;;;;;15.25;8.05;;;7.30;99.90;;;;;;5040099;28;20578;-67
2023/05/01 02:26:58;;;;;;;14.52;7.80;;;7.20;99.90;;;;;;5039992;28;20392;-67
2023/05/01 02:29:25;;;;;;;15.50;7.50;;;7.20;99.90;;;;;;5038459;28;20477;-67
2023/05/01 02:31:50;;;;;;;15.68;7.68;;;7.20;99.90;;;;;;5036835;28;20388;-67
2023/05/01 02:34:16;;;;;;;14.55;8.00;;;7.20;99.90;;;;;;5036438;28;20045;-67
2023/05/01 02:36:41;;;;;;;13.73;7.55;;;7.10;99.90;;;;;;5038960;28;20045;-67
2023/05/01 02:39:07;;;;;;;14.75;7.40;;;7.10;99.90;;;;;;5034729;28;20040;-67
2023/05/01 02:41:35;;;;;;;16.15;7.43;;;7.10;99.90;;;;;;5039306;28;20084;-67
2023/05/01 02:44:03;;;;;;;14.73;7.68;;;7.10;99.90;;;;;;5041697;28;20054;-67
2023/05/01 02:46:32;;;;;;;13.05;6.95;;;7.00;99.90;;;;;;5037355;28;20072;-67
2023/05/01 02:49:01;;;;;;;13.90;7.20;;;7.00;99.90;;;;;;5040685;28;20052;-67
2023/05/01 02:51:28;;;;;;;12.10;6.97;;;7.00;99.90;;;;;;5036674;28;20458;-67
2023/05/01 02:53:54;;;;;;;13.30;7.13;;;7.00;99.90;;;;;;5037810;28;20063;-67
2023/05/01 02:56:20;;;;;;;13.65;7.03;;;6.90;99.90;;;;;;5042187;28;20091;-67
2023/05/01 02:58:47;;;;;;;12.52;7.18;;;6.90;99.90;;;;;;5039963;28;20045;-67
2023/05/01 03:01:13;;;;;;;15.05;7.10;;;6.90;99.90;;;;;;5037101;28;20496;-67
2023/05/01 03:03:38;;;;;;;13.57;7.25;;;6.80;99.90;;;;;;5040731;28;20048;-67
2023/05/01 03:06:04;;;;;;;15.80;6.95;;;6.80;99.90;;;;;;5036539;28;20033;-67
2023/05/01 03:08:30;;;;;;;12.85;6.90;;;6.80;99.90;;;;;;5038395;28;20033;-67
2023/05/01 03:10:55;;;;;;;14.07;7.13;;;6.80;99.90;;;;;;5038224;28;20052;-67
2023/05/01 03:13:21;;;;;;;17.15;7.63;;;6.80;99.90;;;;;;5041000;28;20045;-67
2023/05/01 03:15:47;;;;;;;13.38;6.75;;;6.70;99.90;;;;;;5041257;28;20485;-67
2023/05/01 03:18:12;;;;;;;14.07;7.57;;;6.70;99.90;;;;;;5039056;28;20128;-67
2023/05/01 03:20:38;;;;;;;14.57;7.35;;;6.70;99.90;;;;;;5040562;28;20044;-67
2023/05/01 03:23:03;;;;;;;15.05;6.90;;;6.70;99.90;;;;;;5039293;28;20419;-67
2023/05/01 03:25:29;;;;;;;13.15;7.00;;;6.60;99.90;;;;;;5044065;28;20032;-67
2023/05/01 03:27:54;;;;;;;16.77;7.85;;;6.60;99.90;;;;;;5041080;28;20712;-67
2023/05/01 03:30:20;;;;;;;11.07;7.10;;;6.60;99.90;;;;;;5042287;28;20480;-67
2023/05/01 03:32:45;;;;;;;14.90;7.03;;;6.60;99.90;;;;;;5040191;28;20053;-67
2023/05/01 03:35:11;;;;;;;17.25;7.20;;;6.50;99.90;;;;;;5046883;28;20057;-67
2023/05/01 03:37:37;;;;;;;12.98;6.85;;;6.50;99.90;;;;;;5043370;28;20048;-67
2023/05/01 03:40:03;;;;;;;15.13;7.78;;;6.50;99.90;;;;;;5040883;28;20041;-67
2023/05/01 03:42:28;;;;;;;16.98;7.90;;;6.50;99.90;;;;;;5041830;28;20033;-67
2023/05/01 03:44:54;;;;;;;15.38;7.68;;;6.50;99.90;;;;;;5043066;28;20575;-67
2023/05/01 03:47:19;;;;;;;16.20;7.57;;;6.50;99.90;;;;;;5047130;28;20072;-66
2023/05/01 03:49:45;;;;;;;14.43;7.15;;;6.50;99.90;;;;;;5036939;28;20032;-67
2023/05/01 03:52:11;;;;;;;14.68;6.88;;;6.40;99.90;;;;;;5044472;28;20668;-67
2023/05/01 03:54:37;;;;;;;14.52;7.00;;;6.40;99.90;;;;;;5043099;28;20041;-67
2023/05/01 03:57:03;;;;;;;12.50;6.63;;;6.40;99.90;;;;;;5060421;28;20028;-67
2023/05/01 03:59:29;;;;;;;12.82;6.70;;;6.40;99.90;;;;;;5050943;28;20036;-67
2023/05/01 04:01:54;;;;;;;16.17;7.63;;;6.40;99.90;;;;;;5046276;28;20049;-67
2023/05/01 04:04:22;;;;;;;13.35;7.35;;;6.30;99.90;;;;;;5045149;28;20037;-67
2023/05/01 04:06:48;;;;;;;13.35;7.40;;;6.40;99.90;;;;;;5053637;28;20479;-66
2023/05/01 04:09:14;;;;;;;16.17;8.45;;;6.30;99.90;;;;;;5052213;28;20434;-67
2023/05/01 04:11:40;;;;;;;17.13;7.85;;;6.40;99.90;;;;;;5058260;28;20178;-67
2023/05/01 04:14:05;;;;;;;12.60;7.22;;;6.40;99.90;;;;;;5049172;28;20041;-67
2023/05/01 04:16:31;;;;;;;17.70;7.65;;;6.40;99.90;;;;;;5052316;28;20186;-67
2023/05/01 04:18:56;;;;;;;14.75;7.35;;;6.40;99.90;;;;;;5047265;28;20136;-67
2023/05/01 04:21:22;;;;;;;12.65;7.20;;;6.40;99.90;;;;;;5044038;28;20872;-67
2023/05/01 04:23:47;;;;;;;16.23;7.47;;;6.40;99.90;;;;;;5043072;28;20037;-67
2023/05/01 04:26:13;;;;;;;13.75;7.15;;;6.40;99.90;;;;;;5042770;28;20037;-67
2023/05/01 04:28:38;;;;;;;17.40;7.63;;;6.40;99.90;;;;;;5039153;28;20071;-67
2023/05/01 04:31:04;;;;;;;19.20;7.38;;;6.50;99.90;;;;;;5041494;28;20400;-67
2023/05/01 04:33:30;;;;;;;15.32;7.68;;;6.50;99.90;;;;;;5043394;28;20487;-67
2023/05/01 04:35:55;;;;;;;15.20;7.18;;;6.60;99.90;;;;;;5040551;28;20045;-67
2023/05/01 04:38:21;;;;;;;18.77;7.35;;;6.50;99.90;;;;;;5041306;28;20168;-67
2023/05/01 04:40:46;;;;;;;15.13;7.80;;;6.60;99.90;;;;;;5041720;28;20136;-67
2023/05/01 04:43:12;;;;;;;12.85;7.50;;;6.60;99.90;;;;;;5040564;28;20056;-67
2023/05/01 04:45:38;;;;;;;11.90;7.30;;;6.70;99.90;;;;;;5043409;28;20806;-66
2023/05/01 04:48:03;;;;;;;17.80;7.18;;;6.60;99.90;;;;;;5040446;28;20464;-66
2023/05/01 04:50:29;;;;;;;15.45;7.55;;;6.70;99.90;;;;;;5038571;28;20136;-67
2023/05/01 04:52:55;;;;;;;13.93;7.35;;;6.70;99.90;;;;;;5043717;28;20496;-67
2023/05/01 04:55:20;;;;;;;14.98;7.70;;;6.70;99.90;;;;;;5041690;28;20412;-67
2023/05/01 04:57:46;;;;;;;12.50;7.47;;;6.70;99.90;;;;;;5040066;28;20051;-67
2023/05/01 05:00:12;;;;;;;20.15;8.20;;;6.70;99.90;;;;;;5038248;28;20043;-67
2023/05/01 05:02:37;;;;;;;19.17;7.57;;;6.80;99.90;;;;;;5038798;28;20485;-67
2023/05/01 05:05:03;;;;;;;15.63;7.43;;;6.80;99.90;;;;;;5040616;28;20116;-67
2023/05/01 05:07:29;;;;;;;16.20;7.80;;;6.80;99.90;;;;;;5043073;28;20050;-67
2023/05/01 05:09:54;;;;;;;14.73;7.88;;;6.90;99.90;;;;;;5042803;28;20463;-67
2023/05/01 05:12:20;;;;;;;14.05;7.82;;;6.90;99.90;;;;;;5041379;28;20485;-67
2023/05/01 05:14:46;;;;;;;15.90;7.88;;;7.00;99.90;;;;;;5039710;28;20552;-67
2023/05/01 05:17:12;;;;;;;14.30;7.82;;;7.00;99.90;;;;;;5042201;28;20052;-67
2023/05/01 05:19:38;;;;;;;17.25;8.20;;;7.10;99.90;;;;;;5044700;28;20304;-67
2023/05/01 05:22:04;;;;;;;18.25;7.53;;;7.20;99.90;;;;;;5045582;28;20044;-67
2023/05/01 05:24:30;;;;;;;14.85;7.68;;;7.30;99.90;;;;;;5046321;28;20037;-67
2023/05/01 05:26:55;;;;;;;19.05;8.80;;;7.40;99.90;;;;;;5044153;28;20101;-67
2023/05/01 05:29:21;;;;;;;17.00;8.45;;;7.40;99.90;;;;;;5046090;28;20044;-67
2023/05/01 05:31:47;;;;;;;15.48;8.27;;;7.50;99.90;;;;;;5044179;28;20084;-67
2023/05/01 05:34:13;;;;;;;17.63;7.97;;;7.50;99.90;;;;;;5044062;28;20102;-67
2023/05/01 05:36:38;;;;;;;15.70;7.82;;;7.60;99.90;;;;;;5048433;28;20102;-67
2023/05/01 05:39:05;;;;;;;15.52;8.07;;;7.70;99.90;;;;;;5041606;28;20053;-67
2023/05/01 05:41:30;;;;;;;17.17;9.00;;;7.90;99.90;;;;;;5045365;28;20056;-67
2023/05/01 05:43:56;;;;;;;16.98;8.73;;;8.00;99.90;;;;;;5044482;28;20040;-67
2023/05/01 05:46:22;;;;;;;21.52;8.75;;;8.10;99.90;;;;;;5045393;28;20480;-67
2023/05/01 05:48:47;;;;;;;17.25;8.68;;;8.20;99.90;;;;;;5040617;28;20040;-67
2023/05/01 05:51:13;;;;;;;17.67;9.68;;;8.40;99.90;;;;;;5042943;28;20484;-67
2023/05/01 05:53:38;;;;;;;17.55;9.10;;;8.50;99.90;;;;;;5042563;28;20041;-67
2023/05/01 05:56:04;;;;;;;17.35;9.63;;;8.60;99.90;;;;;;5045552;28;20066;-67
2023/05/01 05:58:30;;;;;;;17.88;9.05;;;8.80;99.90;;;;;;5043920;28;20066;-67
2023/05/01 06:00:55;;;;;;;18.98;9.02;;;8.90;99.90;;;;;;5044247;28;20400;-67
2023/05/01 06:03:21;;;;;;;16.75;8.98;;;9.00;99.90;;;;;;5039746;28;20090;-67
2023/05/01 06:05:47;;;;;;;18.05;8.45;;;9.20;99.90;;;;;;5045389;28;20045;-67
2023/05/01 06:08:13;;;;;;;18.23;9.57;;;9.30;99.90;;;;;;5045612;28;20500;-67
2023/05/01 06:10:41;;;;;;;16.27;8.52;;;9.40;99.90;;;;;;5045858;28;20048;-67
2023/05/01 06:13:10;;;;;;;17.30;8.65;;;9.60;99.90;;;;;;5042606;28;20094;-67
2023/05/01 06:15:39;;;;;;;18.23;9.07;;;9.70;99.90;;;;;;5043963;28;20052;-67
2023/05/01 06:18:05;;;;;;;17.33;9.00;;;9.80;99.90;;;;;;5045637;28;20419;-67
2023/05/01 06:20:31;;;;;;;16.13;9.43;;;9.90;99.90;;;;;;5029235;28;20040;-67
2023/05/01 06:22:57;;;;;;;20.13;8.77;;;10.00;99.90;;;;;;5043605;28;20041;-67
2023/05/01 06:25:23;;;;;;;17.90;8.93;;;10.10;99.90;;;;;;5045524;28;20045;-67
2023/05/01 06:27:49;;;;;;;20.98;9.85;;;10.20;99.90;;;;;;5041771;28;20045;-67
2023/05/01 06:30:15;;;;;;;18.80;10.00;;;10.30;99.90;;;;;;5043637;28;20045;-67
2023/05/01 06:32:42;;;;;;;14.60;9.00;;;10.40;99.90;;;;;;5042946;28;20048;-67
2023/05/01 06:35:08;;;;;;;20.20;9.70;;;10.50;99.90;;;;;;5045462;28;20062;-67
2023/05/01 06:37:34;;;;;;;16.20;8.65;;;10.60;99.90;;;;;;5046299;28;20136;-67
2023/05/01 06:40:00;;;;;;;22.05;10.27;;;10.60;99.90;;;;;;5046953;28;20560;-67
2023/05/01 06:42:25;;;;;;;16.70;8.98;;;10.70;99.90;;;;;;5043598;28;20050;-67
2023/05/01 06:44:51;;;;;;;18.45;9.18;;;10.90;99.90;;;;;;5047225;28;20041;-67
2023/05/01 06:47:16;;;;;;;19.55;10.00;;;11.00;99.90;;;;;;5048237;28;20036;-67
2023/05/01 06:49:42;;;;;;;17.95;8.52;;;11.10;99.90;;;;;;5046467;28;20064;-67
2023/05/01 06:52:08;;;;;;;19.17;9.20;;;11.20;99.90;;;;;;5045508;28;20037;-66
2023/05/01 06:54:33;;;;;;;18.70;8.60;;;11.30;99.90;;;;;;5043009;28;20048;-67
2023/05/01 06:56:59;;;;;;;18.02;9.25;;;11.40;99.90;;;;;;5048827;28;20052;-67
2023/05/01 06:59:40;;;;;;;14.45;8.32;;;11.50;99.90;;;;;;5044306;28;20049;-66
2023/05/01 07:02:06;;;;;;;15.48;8.63;;;11.60;99.90;;;;;;5041138;28;20036;-67
2023/05/01 07:04:31;;;;;;;13.95;8.05;;;11.60;99.90;;;;;;5039092;28;20041;-67
2023/05/01 07:06:57;;;;;;;18.08;9.55;;;11.70;99.90;;;;;;5045122;28;20037;-66
2023/05/01 07:09:26;;;;;;;15.38;9.07;;;11.70;99.90;;;;;;5042795;28;20124;-66
2023/05/01 07:11:52;;;;;;;15.90;8.80;;;11.60;99.90;;;;;;5044815;28;20450;-67
2023/05/01 07:14:17;;;;;;;17.67;8.88;;;11.60;99.90;;;;;;5053584;28;20037;-66
2023/05/01 07:17:35;;;;;;;16.42;8.88;;;11.50;99.90;;;;;;5046678;28;20123;-66
2023/05/01 07:20:01;;;;;;;17.23;9.38;;;11.50;99.90;;;;;;5045625;28;20037;-66
2023/05/01 07:23:03;;;;;;;16.17;9.55;;;11.50;99.90;;;;;;5048984;28;20120;-66
2023/05/01 07:25:30;;;;;;;18.65;8.80;;;11.40;99.90;;;;;;5048946;28;20043;-66
2023/05/01 07:27:55;;;;;;;13.50;8.20;;;11.40;99.90;;;;;;5048245;28;20124;-66
2023/05/01 07:30:21;;;;;;;20.35;8.90;;;11.40;99.90;;;;;;5051229;28;20087;-66
2023/05/01 07:32:47;;;;;;;17.23;9.00;;;11.50;99.90;;;;;;5045979;28;20082;-66
2023/05/01 07:35:12;;;;;;;18.65;9.75;;;11.50;99.90;;;;;;5043722;28;20120;-66
2023/05/01 07:37:38;;;;;;;20.17;9.43;;;11.70;99.90;;;;;;5043011;28;20396;-66
2023/05/01 07:40:04;;;;;;;18.83;8.60;;;11.80;99.90;;;;;;5039476;28;20091;-66
2023/05/01 07:42:29;;;;;;;16.02;9.02;;;11.90;99.90;;;;;;5040536;28;20400;-66
2023/05/01 07:45:02;;;;;;;19.15;9.15;;;11.90;99.90;;;;;;5044444;28;20065;-66
2023/05/01 07:47:28;;;;;;;14.98;8.63;;;12.00;99.90;;;;;;5045539;28;20068;-66
2023/05/01 07:50:02;;;;;;;20.25;8.30;;;11.90;99.90;;;;;;5047056;28;20076;-66
2023/05/01 07:52:32;;;;;;;18.45;8.85;;;12.10;99.90;;;;;;5047473;28;20148;-66
2023/05/01 07:54:58;;;;;;;17.45;8.73;;;12.10;99.90;;;;;;5048751;28;20511;-66
2023/05/01 07:57:24;;;;;;;14.63;8.00;;;12.20;99.90;;;;;;5040511;28;20087;-66
2023/05/01 07:59:55;;;;;;;16.80;8.38;;;12.20;99.90;;;;;;5046862;28;20167;-66
2023/05/01 08:02:22;;;;;;;14.88;8.38;;;12.30;99.90;;;;;;5041169;28;20045;-66
2023/05/01 08:04:48;;;;;;;19.55;7.85;;;12.50;99.90;;;;;;5044943;28;20059;-66
2023/05/01 08:07:15;;;;;;;15.82;7.80;;;12.60;99.90;;;;;;5041837;28;20033;-66
2023/05/01 08:09:41;;;;;;;16.33;8.20;;;12.70;99.90;;;;;;5052705;28;20044;-66
2023/05/01 08:12:06;;;;;;;18.40;8.63;;;12.80;99.90;;;;;;5048720;28;20048;-66
2023/05/01 08:14:32;;;;;;;19.17;8.50;;;12.90;99.90;;;;;;5049948;28;21425;-66
2023/05/01 08:16:58;;;;;;;18.42;8.45;;;13.00;99.90;;;;;;5050942;28;20040;-66
2023/05/01 08:19:26;;;;;;;17.73;8.73;;;13.20;99.90;;;;;;5049176;28;20052;-66
2023/05/01 08:21:52;;;;;;;14.05;8.07;;;13.20;99.90;;;;;;5057141;28;20044;-66
2023/05/01 08:24:18;;;;;;;19.88;8.52;;;13.30;99.90;;;;;;5049405;28;20044;-66
2023/05/01 08:26:52;;;;;;;16.08;7.95;;;13.30;99.90;;;;;;5047564;28;20472;-66
2023/05/01 08:29:18;;;;;;;15.30;7.82;;;13.30;99.90;;;;;;5049687;28;20041;-65
2023/05/01 08:31:44;;;;;;;14.82;8.15;;;13.40;99.90;;;;;;5049891;28;20518;-66
2023/05/01 08:34:09;;;;;;;14.27;7.82;;;13.50;99.90;;;;;;5055855;28;20039;-66
2023/05/01 08:36:35;;;;;;;16.13;8.35;;;13.70;99.90;;;;;;5059592;28;20048;-66
2023/05/01 08:39:00;;;;;;;21.48;8.85;;;13.60;99.90;;;;;;5051528;28;20047;-66
2023/05/01 08:41:27;;;;;;;14.95;8.15;;;13.70;99.90;;;;;;5056437;28;20034;-66
2023/05/01 08:43:56;;;;;;;12.55;7.25;;;13.80;99.90;;;;;;5052865;28;20379;-66
2023/05/01 08:46:32;;;;;;;12.73;7.80;;;13.80;99.90;;;;;;5054853;28;20040;-66
2023/05/01 08:49:00;;;;;;;15.13;7.40;;;13.90;99.90;;;;;;5052137;28;20041;-66
2023/05/01 08:51:28;;;;;;;13.98;7.18;;;14.00;99.90;;;;;;5048514;28;20045;-66
2023/05/01 08:53:56;;;;;;;15.70;7.28;;;14.00;99.90;;;;;;5047828;28;20120;-66
2023/05/01 08:56:22;;;;;;;16.80;7.30;;;14.00;99.90;;;;;;5054048;28;20119;-65
2023/05/01 08:58:49;;;;;;;11.65;7.35;;;14.10;99.90;;;;;;5052817;28;20051;-65
2023/05/01 09:01:17;;;;;;;13.60;7.15;;;14.20;99.90;;;;;;5054594;28;20051;-65
2023/05/01 09:03:44;;;;;;;13.45;6.78;;;14.30;99.90;;;;;;5045307;28;20435;-66
2023/05/01 09:06:10;;;;;;;13.40;7.30;;;14.50;99.90;;;;;;5049807;28;20515;-65
2023/05/01 09:08:36;;;;;;;11.20;6.60;;;14.50;99.90;;;;;;5034318;28;20036;-65
2023/05/01 09:11:03;;;;;;;15.48;6.82;;;14.70;99.90;;;;;;5052723;28;20094;-65
2023/05/01 09:13:30;;;;;;;14.93;6.80;;;14.80;99.90;;;;;;5050810;28;20043;-65
2023/05/01 09:15:56;;;;;;;15.50;6.60;;;14.90;99.90;;;;;;5047045;28;20044;-65
2023/05/01 09:18:22;;;;;;;11.85;6.75;;;14.90;99.90;;;;;;5050004;28;20136;-65
2023/05/01 09:20:57;;;;;;;11.20;5.88;;;15.00;99.90;;;;;;5051611;28;20112;-65
2023/05/01 09:23:23;;;;;;;13.63;6.65;;;15.00;99.90;;;;;;5053027;28;20044;-65
2023/05/01 09:25:55;;;;;;;12.70;6.20;;;15.20;99.90;;;;;;5055944;28;20110;-65
2023/05/01 09:28:42;;;;;;;12.93;5.93;;;15.40;99.90;;;;;;5051137;28;20397;-67
2023/05/01 09:31:31;;;;;;;13.70;6.03;;;15.40;99.90;;;;;;5039665;28;20043;-66
2023/05/01 09:34:04;;;;;;;12.68;6.20;;;15.40;99.90;;;;;;5045784;28;20025;-66
2023/05/01 09:36:31;;;;;;;10.25;5.85;;;15.50;99.90;;;;;;5050850;28;20123;-66
2023/05/01 09:39:02;;;;;;;13.23;5.70;;;15.70;99.90;;;;;;5045335;28;20128;-66
2023/05/01 09:41:31;;;;;;;10.65;5.97;;;15.90;99.90;;;;;;5061591;28;20476;-66
2023/05/01 09:43:58;;;;;;;9.65;5.20;;;16.10;99.90;;;;;;5045271;28;20044;-66
2023/05/01 09:46:25;;;;;;;14.13;5.50;;;16.20;99.90;;;;;;5049513;28;20045;-66
2023/05/01 09:48:59;;;;;;;12.52;4.78;;;16.20;99.90;;;;;;5056107;28;20040;-66
2023/05/01 09:51:27;;;;;;;10.40;4.60;;;16.20;99.90;;;;;;5054957;28;20043;-66
2023/05/01 09:54:16;;;;;;;10.95;5.35;;;16.30;99.90;;;;;;5060648;28;20099;-65
2023/05/01 09:56:47;;;;;;;12.88;6.07;;;16.40;99.90;;;;;;5045341;28;20092;-65
2023/05/01 09:59:20;;;;;;;11.02;5.13;;;16.40;99.90;;;;;;5051300;28;20051;-65
2023/05/01 10:01:48;;;;;;;12.82;5.40;;;16.50;99.90;;;;;;5048847;28;20582;-65
2023/05/01 10:04:14;;;;;;;9.38;5.18;;;16.60;99.90;;;;;;5050007;28;20036;-66
2023/05/01 10:06:40;;;;;;;11.82;5.47;;;16.70;99.90;;;;;;5049586;28;20377;-66
2023/05/01 10:09:15;;;;;;;10.10;4.95;;;16.70;99.90;;;;;;5047173;28;20040;-66
2023/05/01 10:11:52;;;;;;;11.80;5.20;;;16.70;99.90;;;;;;5046272;28;20051;-66
2023/05/01 10:14:19;;;;;;;12.02;5.00;;;16.80;99.90;;;;;;5053030;28;20400;-66
2023/05/01 10:16:45;;;;;;;11.15;4.20;;;16.80;99.90;;;;;;5045952;28;20049;-66
2023/05/01 10:19:11;;;;;;;9.02;4.30;;;16.80;99.90;;;;;;5045648;28;20053;-65
2023/05/01 10:21:37;;;;;;;11.02;4.50;;;16.80;99.90;;;;;;5049032;28;20454;-65
2023/05/01 10:24:04;;;;;;;10.18;4.13;;;16.90;99.90;;;;;;5048634;28;20128;-66
2023/05/01 10:26:32;;;;;;;9.10;4.20;;;17.00;99.90;;;;;;5048021;28;20452;-66
2023/05/01 10:29:00;;;;;;;5.40;3.38;;;17.00;99.90;;;;;;5042638;28;20415;-66
2023/05/01 10:31:26;;;;;;;8.00;3.30;;;17.10;99.90;;;;;;5051910;28;20112;-66
2023/05/01 10:33:53;;;;;;;9.15;3.65;;;17.30;99.90;;;;;;5050357;28;20411;-65
2023/05/01 10:36:27;;;;;;;6.80;3.30;;;17.50;99.90;;;;;;5049954;28;20041;-66
2023/05/01 10:38:53;;;;;;;7.75;3.30;;;17.70;99.90;;;;;;5044203;28;20478;-66
2023/05/01 10:42:13;;;;;;;6.82;3.40;;;17.90;99.90;;;;;;5050564;28;20060;-65
2023/05/01 10:52:01;;;;;;;7.47;2.75;;;18.30;99.90;;;;;;4991194;28;20102;-65
2023/05/01 10:54:42;;;;;;;5.25;2.75;;;18.40;99.90;;;;;;5048381;28;20050;-65
2023/05/01 10:57:07;;;;;;;6.72;2.88;;;18.40;99.90;;;;;;5047446;28;20055;-66
2023/05/01 11:03:20;;;;;;;7.70;3.78;;;18.10;99.90;;;;;;5039374;28;20113;-66
2023/05/01 11:06:04;;;;;;;9.02;3.80;;;18.20;99.90;;;;;;5069653;28;20047;-66
2023/05/01 11:08:32;;;;;;;6.97;3.72;;;18.30;99.90;;;;;;5058362;28;20434;-66
2023/05/01 11:11:18;;;;;;;6.32;3.72;;;18.40;99.90;;;;;;5050212;28;20087;-66
2023/05/01 11:14:04;;;;;;;8.82;3.92;;;18.40;99.90;;;;;;5064023;28;20044;-66
2023/05/01 11:17:23;;;;;;;6.03;3.17;;;18.50;99.90;;;;;;5053206;28;20041;-65
2023/05/01 11:19:48;;;;;;;2.75;1.70;;;18.60;99.90;;;;;;5045279;28;20219;-66
2023/05/01 11:22:14;;;;;;;5.03;1.77;;;18.70;99.90;;;;;;5036777;28;20110;-65
2023/05/01 11:24:40;;;;;;;4.82;2.00;;;18.70;99.90;;;;;;5046380;28;20047;-66
2023/05/01 11:27:11;;;;;;;3.85;1.58;;;18.80;99.90;;;;;;5065917;28;20391;-63
2023/05/01 11:29:49;;;;;;;7.20;2.20;;;18.80;99.90;;;;;;5051197;28;20102;-64
2023/05/01 11:32:18;;;;;;;4.18;1.92;;;18.90;98.30;;;;;;5067052;28;20041;-66
2023/05/01 11:38:24;;;;;;;4.53;1.83;;;19.00;99.90;;;;;;5052834;28;20084;-65
2023/05/01 11:40:58;;;;;;;6.25;1.80;;;19.20;99.20;;;;;;5063993;28;20049;-63
2023/05/01 11:43:51;;;;;;;3.90;1.90;;;19.00;97.00;;;;;;5059260;28;20069;-64
2023/05/01 11:46:27;;;;;;;4.05;2.40;;;19.00;96.50;;;;;;5068062;28;20395;-66
2023/05/01 11:49:01;;;;;;;5.20;2.08;;;19.00;98.10;;;;;;5052630;28;20040;-65
2023/05/01 11:51:27;;;;;;;7.97;2.83;;;19.00;97.80;;;;;;5066383;28;20040;-64
2023/05/01 11:54:02;;;;;;;5.95;2.80;;;19.00;97.00;;;;;;5053775;28;20131;-65
2023/05/01 12:00:38;;;;;;;8.57;3.15;;;19.00;97.90;;;;;;5039361;28;20503;-64
2023/05/01 12:03:09;;;;;;;3.40;2.33;;;19.10;95.90;;;;;;5047073;28;20548;-67
2023/05/01 12:05:37;;;;;;;5.15;2.30;;;19.00;96.50;;;;;;5051574;28;20040;-66
2023/05/01 12:11:10;;;;;;;3.20;1.80;;;18.90;98.30;;;;;;5042304;28;20045;-64
2023/05/01 12:13:38;;;;;;;6.07;2.88;;;18.90;97.30;;;;;;5049486;28;20038;-65
2023/05/01 12:16:04;;;;;;;4.35;2.50;;;18.90;98.30;;;;;;5053573;28;20037;-64
2023/05/01 12:18:30;;;;;;;4.40;1.92;;;19.10;99.80;;;;;;5055980;28;20059;-64
2023/05/01 12:20:55;;;;;;;7.20;3.10;;;19.20;97.30;;;;;;5051596;28;20128;-64
2023/05/01 12:23:38;;;;;;;6.07;2.90;;;19.20;98.50;;;;;;5044949;28;20044;-64
2023/05/01 12:26:26;;;;;;;4.88;2.70;;;19.40;99.30;;;;;;5045958;28;20044;-65
2023/05/01 12:29:00;;;;;;;7.20;3.00;;;19.50;97.00;;;;;;5032701;28;20416;-65
2023/05/01 12:31:27;;;;;;;7.35;3.17;;;19.60;97.70;;;;;;5048745;28;20468;-65
2023/05/01 12:33:57;;;;;;;4.95;2.75;;;19.60;97.70;;;;;;5067831;28;20052;-64
2023/05/01 12:36:24;;;;;;;9.15;3.13;;;19.50;96.60;;;;;;5060077;28;20040;-65
2023/05/01 12:39:10;;;;;;;4.90;2.67;;;19.50;94.10;;;;;;5050445;28;20059;-65
2023/05/01 12:41:37;;;;;;;4.93;2.60;;;19.50;94.80;;;;;;5052309;28;20484;-66
2023/05/01 12:44:25;;;;;;;5.85;1.95;;;19.60;96.60;;;;;;5049020;28;20045;-66
2023/05/01 12:47:11;;;;;;;5.10;3.10;;;19.80;97.30;;;;;;5050017;28;20060;-65
2023/05/01 12:49:37;;;;;;;5.28;2.95;;;20.00;93.50;;;;;;5050147;28;20058;-66
2023/05/01 12:52:07;;;;;;;8.15;3.55;;;19.80;95.80;;;;;;5053070;28;20041;-65
2023/05/01 12:54:37;;;;;;;6.32;3.28;;;19.80;96.50;;;;;;5053555;28;20036;-64
2023/05/01 12:57:13;;;;;;;6.18;3.25;;;19.60;95.70;;;;;;5050973;28;20086;-66
2023/05/01 12:59:44;;;;;;;6.82;2.95;;;19.30;95.30;;;;;;5031947;28;20107;-64
2023/05/01 13:02:15;;;;;;;5.07;2.72;;;19.30;96.30;;;;;;5038918;28;20396;-64
2023/05/01 13:04:42;;;;;;;4.38;2.70;;;19.20;98.40;;;;;;5051391;28;20060;-65
2023/05/01 13:07:13;;;;;;;3.60;2.47;;;19.00;99.10;;;;;;5050394;28;20051;-65
2023/05/01 13:09:49;;;;;;;7.60;2.60;;;18.90;99.90;;;;;;5034813;28;20063;-64
2023/05/01 13:19:27;;;;;;;7.97;2.75;;;18.60;99.90;;;;;;5043258;28;20091;-64
2023/05/01 13:21:55;;;;;;;6.15;2.60;;;18.80;99.90;;;;;;5047152;28;20033;-67